createdAt,value
2022-08-21T00:04:57.849Z,100.00
2022-08-21T00:10:05.222Z,100.00
2022-08-21T00:15:12.904Z,100.00
2022-08-21T00:20:23.368Z,100.00
2022-08-21T00:25:29.764Z,100.00
2022-08-21T00:30:35.533Z,100.00
2022-08-21T00:35:45.899Z,100.00
2022-08-21T00:40:58.608Z,100.00
2022-08-21T00:46:07.725Z,100.00
2022-08-21T00:51:23.533Z,100.00
2022-08-21T00:56:33.276Z,100.00
2022-08-21T01:01:38.795Z,100.00
2022-08-21T01:06:47.398Z,100.00
2022-08-21T01:11:53.495Z,100.00
2022-08-21T01:17:01.752Z,100.00
2022-08-21T01:22:13.390Z,100.00
2022-08-21T01:27:19.060Z,100.00
2022-08-21T01:32:24.704Z,100.00
2022-08-21T01:37:32.854Z,100.00
2022-08-21T01:42:39.539Z,100.00
2022-08-21T01:47:46.001Z,100.00
2022-08-21T01:52:56.798Z,100.00
2022-08-21T01:58:04.011Z,100.00
2022-08-21T02:03:10.593Z,100.00
2022-08-21T02:08:19.143Z,100.00
2022-08-21T02:13:25.411Z,100.00
2022-08-21T02:18:30.815Z,100.00
2022-08-21T02:23:39.537Z,100.00
2022-08-21T02:28:45.566Z,100.00
2022-08-21T02:33:50.973Z,100.00
2022-08-21T02:38:59.138Z,100.00
2022-08-21T02:44:06.338Z,100.00
2022-08-21T02:49:13.748Z,100.00
2022-08-21T02:54:22.377Z,100.00
2022-08-21T02:59:27.826Z,100.00
2022-08-21T03:04:33.132Z,100.00
2022-08-21T03:09:55.365Z,100.00
2022-08-21T03:15:01.967Z,100.00
2022-08-21T03:20:09.802Z,100.00
2022-08-21T03:25:20.361Z,100.00
2022-08-21T03:30:32.781Z,100.00
2022-08-21T03:35:38.987Z,100.00
2022-08-21T03:40:47.909Z,100.00
2022-08-21T03:45:53.725Z,100.00
2022-08-21T03:50:59.147Z,100.00
2022-08-21T03:56:08.937Z,100.00
2022-08-21T04:01:16.487Z,100.00
2022-08-21T04:06:22.652Z,100.00
2022-08-21T04:11:30.844Z,100.00
2022-08-21T04:16:36.054Z,100.00
2022-08-21T04:21:42.002Z,100.00
2022-08-21T04:26:51.855Z,100.00
2022-08-21T04:31:56.943Z,100.00
2022-08-21T04:37:01.974Z,100.00
2022-08-21T04:42:11.865Z,100.00
2022-08-21T04:47:17.644Z,100.00
2022-08-21T04:52:27.089Z,100.00
2022-08-21T04:57:48.687Z,100.00
2022-08-21T05:02:58.009Z,100.00
2022-08-21T05:08:10.188Z,100.00
2022-08-21T05:13:20.944Z,100.00
2022-08-21T05:18:26.394Z,100.00
2022-08-21T05:23:31.810Z,100.00
2022-08-21T05:28:39.632Z,100.00
2022-08-21T05:33:46.694Z,100.00
2022-08-21T05:38:55.216Z,100.00
2022-08-21T05:44:03.042Z,100.00
2022-08-21T05:49:16.171Z,100.00
2022-08-21T05:54:25.095Z,100.00
2022-08-21T05:59:34.255Z,100.00
2022-08-21T06:04:39.977Z,100.00
2022-08-21T06:09:46.098Z,100.00
2022-08-21T06:14:54.569Z,100.00
2022-08-21T06:20:00.147Z,100.00
2022-08-21T06:25:09.331Z,100.00
2022-08-21T06:35:42.890Z,100.00
2022-08-21T06:40:49.959Z,100.00
2022-08-21T06:51:29.365Z,100.00
2022-08-21T06:56:38.070Z,100.00
2022-08-21T07:01:48.487Z,100.00
2022-08-21T07:06:57.407Z,100.00
2022-08-21T07:23:37.045Z,100.00
2022-08-21T08:01:50.854Z,100.00
2022-08-21T18:32:50.122Z,83.97
2022-08-21T18:37:54.952Z,85.02
2022-08-21T18:43:04.195Z,88.38
2022-08-21T18:48:14.821Z,89.11
2022-08-21T18:53:27.586Z,92.40
2022-08-21T18:58:34.103Z,94.94
2022-08-21T19:03:41.824Z,96.24
2022-08-21T19:08:47.825Z,98.69
2022-08-21T19:13:55.152Z,97.19
2022-08-21T19:19:04.081Z,98.30
2022-08-21T19:24:17.597Z,100.00
2022-08-21T19:29:34.640Z,100.00
2022-08-21T19:34:44.421Z,100.00
2022-08-21T19:39:51.970Z,100.00
2022-08-21T19:44:58.489Z,100.00
2022-08-21T19:55:35.056Z,100.00
2022-08-21T20:00:40.028Z,100.00
2022-08-21T20:05:54.057Z,100.00
2022-08-21T20:11:02.548Z,100.00
2022-08-21T20:16:11.888Z,100.00
2022-08-21T20:21:20.721Z,100.00
2022-08-21T20:26:26.557Z,100.00
2022-08-21T20:31:31.416Z,100.00
2022-08-21T20:36:41.886Z,100.00
2022-08-21T20:41:49.221Z,100.00
2022-08-21T20:46:54.126Z,100.00
2022-08-21T20:52:07.482Z,100.00
2022-08-21T20:57:21.892Z,100.00
2022-08-21T21:03:04.227Z,100.00
2022-08-21T21:08:23.966Z,100.00
2022-08-21T21:13:35.600Z,100.00
2022-08-21T21:18:45.341Z,100.00
2022-08-21T21:24:06.161Z,100.00
2022-08-21T21:29:16.568Z,100.00
2022-08-21T21:34:22.527Z,100.00
2022-08-21T21:39:37.014Z,100.00
2022-08-21T21:44:57.630Z,100.00
2022-08-21T21:50:24.486Z,100.00
2022-08-21T21:55:50.205Z,100.00
2022-08-21T22:01:03.245Z,100.00
2022-08-21T22:06:15.687Z,100.00
2022-08-21T22:11:31.828Z,100.00
2022-08-21T22:16:41.192Z,100.00
2022-08-21T22:21:53.185Z,100.00
2022-08-21T22:27:04.823Z,100.00
2022-08-21T22:32:13.345Z,100.00
2022-08-21T22:37:19.795Z,100.00
2022-08-21T22:42:31.580Z,100.00
2022-08-21T22:47:41.472Z,100.00
2022-08-21T22:52:50.836Z,100.00
2022-08-21T22:58:11.568Z,100.00
2022-08-21T23:08:52.794Z,100.00
2022-08-21T23:14:00.461Z,100.00
2022-08-21T23:19:15.420Z,100.00
2022-08-21T23:24:46.739Z,100.00
2022-08-21T23:30:18.603Z,100.00
2022-08-21T23:35:46.810Z,100.00
2022-08-21T23:40:57.356Z,100.00
2022-08-21T23:46:32.439Z,100.00
2022-08-21T23:51:47.005Z,100.00
2022-08-21T23:57:12.197Z,100.00
